York, Indiana
Current Conditions -  °F | °C
As of 9:35 AM on Friday 19 Dec 2014 (Local Time) from KANQ Reporting Station
Overcast Overcast  
Wind Chill: 27°   Ceiling: 1200
Heat Index: 27°   Visibility: 7mi
Dew Point: 16°   Wind: 3mph
Humidity: 64%   Direction: 290°WNW
Pressure: 30.24"   Gusts: NA
Location:  41.6594°N, 85.0055°W
Report Text: KANQ 191435Z AUTO 29003KT 7SM OVC012 M03/M09 A3024 RMK
Loading
Personal Weather Stations






























Interactive Weather Map New forecast layout! Learn more

10-Day Weather Forecast

Advertisements
Track Severe Weather on mobile